Sipesville, PA (15561)

9:45 PM EDT on August 20, 2014 (GMT -0400)
Somerset Twp 3 | Change Station
CLOSE
Current Station
Personal Weather Station
Location: Somerset, PA
Elevation: 2241 ft
Nearby Weather Stations

Elev 2241 ft 40.02 °N, 79.10 °W | Updated 0 second ago

Scattered Clouds
Scattered Clouds
67.3 °F
Feels Like 67.3 °F
N
0.7
Wind Variable Wind from NW
Gusts 1.6 mph

Today
High -- | Low -- °F
--% Chance of Precip.
Yesterday
High -- | Low -- °F
Precip. -- in
6:32 AM 8:06 PM
Waning Crescent, 18% visible
Pressure 29.97 in
Visibility 10.0 miles
Clouds Scattered Clouds 9000 ft
Dew Point 66 °F
Humidity 95%
Rainfall 0.48 in
Snow Depth Not available.
UV 0 out of 12
Pollen 8.50 out of 12
Ozone Good
PM2.5 Moderate
Flu Activity Not available.
METAR KLBE 210050Z 23008KT 10SM SCT090 23/22 A2997

More Conditions Fewer Conditions

Pressure 29.97 in
Visibility 10.0 miles
Clouds Scattered Clouds 9000 ft
Dew Point 66 °F
Humidity 95%
Rainfall 0.48 in
Snow Depth Not available.
UV 0 out of 12
Pollen 8.50 out of 12
Ozone Good
PM2.5 Moderate
Flu Activity Not available.
METAR KLBE 210050Z 23008KT 10SM SCT090 23/22 A2997

More Conditions Fewer Conditions

Nowcast | as of 9:34 PM EDT on August 20, 2014

Widely scattered showers will continue to push slowly eastward across the area late this evening.

×

10-Day Weather Forecast

Almanac

Astronomy

Aug. 20, 2014 Rise Set
Actual Time 6:32 AM EDT 8:06 PM EDT
Civil Twilight 6:03 AM EDT 8:34 PM EDT
Nautical Twilight 5:29 AM EDT 9:09 PM EDT
Astronomical Twilight 4:52 AM EDT 9:45 PM EDT
Moon 2:10 AM EDT (8/20) 4:49 PM EDT (8/20)
Length of Visible Light 14h 30m
Length of Day
13h 33m
Tomorrow will be 2m 24s shorter.
Waning Crescent, 18% of the Moon is Illuminated
Today
Waning Crescent
Aug 25
New
Sep 2
First Quarter
Sep 8
Full
Sep 15
Last Quarter

Today's Extremes

State Highs State Lows

Community

WunderPhotos

Upload Photos

1,745,859 photos uploaded!

WunderBlogs® & News

Nearby

Air Quality

  Air Quality AQ Index Pollutant
Yesterday Moderate
PM2.5
Yesterday Moderate
OZONE
Current Moderate
PM2.5
Current Good
OZONE
Wednesday Moderate
PM2.5
Wednesday Good
OZONE
Thursday Good
PM2.5
Thursday Good
OZONE
Friday Moderate
PM2.5
Friday Good
OZONE

Snow Depth

Station Depth Elevation
No new snow has been reported.

Earthquake Activity

City Distance Mag. Time & Date
No recent earthquake activity has been reported nearby.
Minimum magnitude displayed is 2.5.

Coastal Water Temperatures

Place Temperature
No Stations Reporting

Nearby Weather Stations